HMO weather

General Ignacio P. Garcia International Airport
Hermosillo, Sonora, Mexico

Public forecast

Using degrees Celsius for public forecast. Weather courtesy of forecast.io.

METAR (pilot weather report)

Retrieved 2019/04/19 18:42 UTC (0 seconds ago):

MMHO 191842Z 00000KT 10SM BKN200 38/M03 A2988 RMK 8/008 HZY

TAF (pilot weather forecast)

Retrieved 2019/04/19 18:54 UTC (0 seconds ago):

TAF MMHO 191647Z 1918/2018 13015KT P6SM SCT250 BECMG 2002/2003 00000KT FM201600 24010KT 6PSM SCT260